sensor_id;sensor_type;location;lat;lon;timestamp;pressure;altitude;pressure_sealevel;temperature;humidity
64080;BME280;51042;49.696;10.808;2023-03-13T00:00:28;97917.34;;;6.31;100.00
64080;BME280;51042;49.696;10.808;2023-03-13T00:02:53;97921.66;;;6.28;100.00
64080;BME280;51042;49.696;10.808;2023-03-13T00:05:19;97920.19;;;6.24;100.00
64080;BME280;51042;49.696;10.808;2023-03-13T00:07:44;97912.44;;;6.22;100.00
64080;BME280;51042;49.696;10.808;2023-03-13T00:10:09;97912.91;;;6.17;100.00
64080;BME280;51042;49.696;10.808;2023-03-13T00:12:34;97906.00;;;6.12;100.00
64080;BME280;51042;49.696;10.808;2023-03-13T00:14:59;97902.91;;;6.10;100.00
64080;BME280;51042;49.696;10.808;2023-03-13T00:17:25;97895.94;;;6.09;100.00
64080;BME280;51042;49.696;10.808;2023-03-13T00:19:50;97893.22;;;6.09;100.00
64080;BME280;51042;49.696;10.808;2023-03-13T00:22:15;97901.84;;;6.04;100.00
64080;BME280;51042;49.696;10.808;2023-03-13T00:24:40;97899.63;;;5.99;100.00
64080;BME280;51042;49.696;10.808;2023-03-13T00:27:05;97896.53;;;5.97;100.00
64080;BME280;51042;49.696;10.808;2023-03-13T00:29:31;97898.50;;;5.97;100.00
64080;BME280;51042;49.696;10.808;2023-03-13T00:31:57;97898.94;;;5.95;100.00
64080;BME280;51042;49.696;10.808;2023-03-13T00:34:23;97889.13;;;5.98;100.00
64080;BME280;51042;49.696;10.808;2023-03-13T00:36:51;97893.03;;;5.97;100.00
64080;BME280;51042;49.696;10.808;2023-03-13T00:39:16;97892.28;;;5.96;100.00
64080;BME280;51042;49.696;10.808;2023-03-13T00:41:41;97891.53;;;5.96;100.00
64080;BME280;51042;49.696;10.808;2023-03-13T00:44:07;97881.75;;;5.98;100.00
64080;BME280;51042;49.696;10.808;2023-03-13T00:46:33;97891.88;;;5.98;100.00
64080;BME280;51042;49.696;10.808;2023-03-13T00:48:58;97887.97;;;5.99;100.00
64080;BME280;51042;49.696;10.808;2023-03-13T00:51:24;97888.66;;;6.03;100.00
64080;BME280;51042;49.696;10.808;2023-03-13T00:53:50;97882.78;;;6.04;100.00
64080;BME280;51042;49.696;10.808;2023-03-13T00:56:16;97877.28;;;6.08;100.00
64080;BME280;51042;49.696;10.808;2023-03-13T00:58:42;97876.09;;;6.09;100.00
64080;BME280;51042;49.696;10.808;2023-03-13T01:01:09;97876.44;;;6.11;100.00
64080;BME280;51042;49.696;10.808;2023-03-13T01:03:35;97868.19;;;6.14;100.00
64080;BME280;51042;49.696;10.808;2023-03-13T01:06:02;97872.88;;;6.14;100.00
64080;BME280;51042;49.696;10.808;2023-03-13T01:08:28;97864.38;;;6.12;100.00
64080;BME280;51042;49.696;10.808;2023-03-13T01:11:00;97861.28;;;6.10;100.00
64080;BME280;51042;49.696;10.808;2023-03-13T01:13:26;97860.53;;;6.09;100.00
64080;BME280;51042;49.696;10.808;2023-03-13T01:15:51;97861.28;;;6.10;100.00
64080;BME280;51042;49.696;10.808;2023-03-13T01:18:17;97847.66;;;6.10;100.00
64080;BME280;51042;49.696;10.808;2023-03-13T01:20:43;97857.78;;;6.09;100.00
64080;BME280;51042;49.696;10.808;2023-03-13T01:23:08;97836.00;;;6.09;100.00
64080;BME280;51042;49.696;10.808;2023-03-13T01:25:34;97836.38;;;6.11;100.00
64080;BME280;51042;49.696;10.808;2023-03-13T01:28:00;97830.84;;;6.15;100.00
64080;BME280;51042;49.696;10.808;2023-03-13T01:30:25;97831.97;;;6.18;100.00
64080;BME280;51042;49.696;10.808;2023-03-13T01:32:50;97824.91;;;6.20;100.00
64080;BME280;51042;49.696;10.808;2023-03-13T01:35:15;97826.44;;;6.21;100.00
64080;BME280;51042;49.696;10.808;2023-03-13T01:37:42;97824.84;;;6.24;100.00
64080;BME280;51042;49.696;10.808;2023-03-13T01:40:07;97826.78;;;6.23;100.00
64080;BME280;51042;49.696;10.808;2023-03-13T01:42:47;97824.56;;;6.18;100.00
64080;BME280;51042;49.696;10.808;2023-03-13T01:47:56;97811.09;;;6.11;100.00
64080;BME280;51042;49.696;10.808;2023-03-13T01:50:22;97811.16;;;6.07;100.00
64080;BME280;51042;49.696;10.808;2023-03-13T01:52:47;97801.78;;;6.08;100.00
64080;BME280;51042;49.696;10.808;2023-03-13T01:55:13;97804.59;;;6.05;100.00
64080;BME280;51042;49.696;10.808;2023-03-13T01:57:45;97808.84;;;6.06;100.00
64080;BME280;51042;49.696;10.808;2023-03-13T02:00:15;97801.38;;;6.10;100.00
64080;BME280;51042;49.696;10.808;2023-03-13T02:02:43;97792.78;;;6.11;100.00
64080;BME280;51042;49.696;10.808;2023-03-13T02:05:10;97783.00;;;6.14;100.00
64080;BME280;51042;49.696;10.808;2023-03-13T02:07:40;97785.66;;;6.18;100.00
64080;BME280;51042;49.696;10.808;2023-03-13T02:10:07;97790.59;;;6.23;100.00
64080;BME280;51042;49.696;10.808;2023-03-13T02:12:35;97786.28;;;6.25;100.00
64080;BME280;51042;49.696;10.808;2023-03-13T02:15:05;97785.34;;;6.32;100.00
64080;BME280;51042;49.696;10.808;2023-03-13T02:17:31;97778.66;;;6.36;100.00
64080;BME280;51042;49.696;10.808;2023-03-13T02:19:57;97775.94;;;6.36;100.00
64080;BME280;51042;49.696;10.808;2023-03-13T02:27:28;97762.63;;;6.38;100.00
64080;BME280;51042;49.696;10.808;2023-03-13T02:29:53;97761.13;;;6.37;100.00
64080;BME280;51042;49.696;10.808;2023-03-13T02:32:18;97765.03;;;6.36;100.00
64080;BME280;51042;49.696;10.808;2023-03-13T02:34:45;97754.81;;;6.40;100.00
64080;BME280;51042;49.696;10.808;2023-03-13T02:37:13;97750.53;;;6.39;100.00
64080;BME280;51042;49.696;10.808;2023-03-13T02:39:40;97750.03;;;6.44;100.00
64080;BME280;51042;49.696;10.808;2023-03-13T02:42:07;97749.22;;;6.47;100.00
64080;BME280;51042;49.696;10.808;2023-03-13T02:44:36;97740.16;;;6.50;100.00
64080;BME280;51042;49.696;10.808;2023-03-13T02:47:02;97736.25;;;6.51;100.00
64080;BME280;51042;49.696;10.808;2023-03-13T02:49:28;97734.31;;;6.52;100.00
64080;BME280;51042;49.696;10.808;2023-03-13T02:51:54;97733.94;;;6.50;100.00
64080;BME280;51042;49.696;10.808;2023-03-13T02:54:22;97728.44;;;6.53;100.00
64080;BME280;51042;49.696;10.808;2023-03-13T02:56:49;97732.75;;;6.51;100.00
64080;BME280;51042;49.696;10.808;2023-03-13T02:59:16;97735.06;;;6.52;100.00
64080;BME280;51042;49.696;10.808;2023-03-13T03:01:41;97726.38;;;6.57;100.00
64080;BME280;51042;49.696;10.808;2023-03-13T03:04:06;97730.91;;;6.64;100.00
64080;BME280;51042;49.696;10.808;2023-03-13T03:06:31;97723.41;;;6.68;100.00
64080;BME280;51042;49.696;10.808;2023-03-13T03:08:57;97723.75;;;6.70;100.00
64080;BME280;51042;49.696;10.808;2023-03-13T03:11:22;97715.56;;;6.70;100.00
64080;BME280;51042;49.696;10.808;2023-03-13T03:13:47;97710.13;;;6.70;100.00
64080;BME280;51042;49.696;10.808;2023-03-13T03:16:12;97704.78;;;6.67;100.00
64080;BME280;51042;49.696;10.808;2023-03-13T03:18:44;97705.03;;;6.72;100.00
64080;BME280;51042;49.696;10.808;2023-03-13T03:21:10;97707.66;;;6.76;100.00
64080;BME280;51042;49.696;10.808;2023-03-13T03:23:35;97697.88;;;6.78;100.00
64080;BME280;51042;49.696;10.808;2023-03-13T03:26:01;97700.06;;;6.83;100.00
64080;BME280;51042;49.696;10.808;2023-03-13T03:28:27;97698.88;;;6.84;100.00
64080;BME280;51042;49.696;10.808;2023-03-13T03:30:52;97691.47;;;6.85;100.00
64080;BME280;51042;49.696;10.808;2023-03-13T03:33:19;97694.53;;;6.87;100.00
64080;BME280;51042;49.696;10.808;2023-03-13T03:35:44;97687.09;;;6.87;100.00
64080;BME280;51042;49.696;10.808;2023-03-13T03:38:09;97683.63;;;6.87;100.00
64080;BME280;51042;49.696;10.808;2023-03-13T03:40:35;97690.25;;;6.86;100.00
64080;BME280;51042;49.696;10.808;2023-03-13T03:43:00;97685.56;;;6.86;100.00
64080;BME280;51042;49.696;10.808;2023-03-13T03:45:25;97678.50;;;6.89;100.00
64080;BME280;51042;49.696;10.808;2023-03-13T03:47:50;97676.13;;;6.91;100.00
64080;BME280;51042;49.696;10.808;2023-03-13T03:50:15;97674.59;;;6.90;100.00
64080;BME280;51042;49.696;10.808;2023-03-13T03:52:40;97665.66;;;6.89;100.00
64080;BME280;51042;49.696;10.808;2023-03-13T03:55:06;97673.91;;;6.86;100.00
64080;BME280;51042;49.696;10.808;2023-03-13T03:57:31;97668.13;;;6.84;100.00
64080;BME280;51042;49.696;10.808;2023-03-13T03:59:56;97665.81;;;6.82;100.00
64080;BME280;51042;49.696;10.808;2023-03-13T04:02:21;97655.69;;;6.83;100.00
64080;BME280;51042;49.696;10.808;2023-03-13T04:04:47;97657.22;;;6.84;100.00
64080;BME280;51042;49.696;10.808;2023-03-13T04:07:12;97649.81;;;6.84;100.00
64080;BME280;51042;49.696;10.808;2023-03-13T04:09:37;97639.31;;;6.83;100.00
64080;BME280;51042;49.696;10.808;2023-03-13T04:12:02;97644.41;;;6.81;100.00
64080;BME280;51042;49.696;10.808;2023-03-13T04:14:28;97641.38;;;6.79;100.00
64080;BME280;51042;49.696;10.808;2023-03-13T04:16:53;97636.66;;;6.79;100.00
64080;BME280;51042;49.696;10.808;2023-03-13T04:19:18;97629.25;;;6.80;100.00
64080;BME280;51042;49.696;10.808;2023-03-13T04:21:43;97624.16;;;6.82;100.00
64080;BME280;51042;49.696;10.808;2023-03-13T04:24:08;97620.22;;;6.83;100.00
64080;BME280;51042;49.696;10.808;2023-03-13T04:26:34;97621.00;;;6.83;100.00
64080;BME280;51042;49.696;10.808;2023-03-13T04:28:59;97619.47;;;6.82;100.00
64080;BME280;51042;49.696;10.808;2023-03-13T04:31:24;97614.34;;;6.84;100.00
64080;BME280;51042;49.696;10.808;2023-03-13T04:33:49;97606.94;;;6.85;100.00
64080;BME280;51042;49.696;10.808;2023-03-13T04:36:14;97603.75;;;6.86;100.00
64080;BME280;51042;49.696;10.808;2023-03-13T04:38:39;97610.41;;;6.85;100.00
64080;BME280;51042;49.696;10.808;2023-03-13T04:41:05;97605.72;;;6.86;100.00
64080;BME280;51042;49.696;10.808;2023-03-13T04:43:30;97618.28;;;6.83;100.00
64080;BME280;51042;49.696;10.808;2023-03-13T04:45:55;97619.34;;;6.86;100.00
64080;BME280;51042;49.696;10.808;2023-03-13T04:48:20;97607.50;;;6.92;100.00
64080;BME280;51042;49.696;10.808;2023-03-13T04:50:46;97606.41;;;6.90;100.00
64080;BME280;51042;49.696;10.808;2023-03-13T04:53:12;97606.06;;;6.88;100.00
64080;BME280;51042;49.696;10.808;2023-03-13T04:55:37;97611.53;;;6.88;100.00
64080;BME280;51042;49.696;10.808;2023-03-13T04:58:02;97608.13;;;6.84;100.00
64080;BME280;51042;49.696;10.808;2023-03-13T05:00:28;97612.41;;;6.85;100.00
64080;BME280;51042;49.696;10.808;2023-03-13T05:02:53;97601.81;;;6.87;100.00
64080;BME280;51042;49.696;10.808;2023-03-13T05:05:18;97603.75;;;6.86;100.00
64080;BME280;51042;49.696;10.808;2023-03-13T05:07:43;97598.41;;;6.83;100.00
64080;BME280;51042;49.696;10.808;2023-03-13T05:10:08;97592.59;;;6.81;100.00
64080;BME280;51042;49.696;10.808;2023-03-13T05:12:33;97579.41;;;6.79;100.00
64080;BME280;51042;49.696;10.808;2023-03-13T05:14:59;97578.31;;;6.77;100.00
64080;BME280;51042;49.696;10.808;2023-03-13T05:17:24;97588.44;;;6.76;100.00
64080;BME280;51042;49.696;10.808;2023-03-13T05:19:49;97583.41;;;6.75;100.00
64080;BME280;51042;49.696;10.808;2023-03-13T05:22:14;97579.94;;;6.74;100.00
64080;BME280;51042;49.696;10.808;2023-03-13T05:24:39;97579.59;;;6.72;100.00
64080;BME280;51042;49.696;10.808;2023-03-13T05:27:05;97573.91;;;6.67;100.00
64080;BME280;51042;49.696;10.808;2023-03-13T05:29:30;97575.94;;;6.63;100.00
64080;BME280;51042;49.696;10.808;2023-03-13T05:31:55;97562.00;;;6.61;100.00
64080;BME280;51042;49.696;10.808;2023-03-13T05:34:20;97550.75;;;6.59;100.00
64080;BME280;51042;49.696;10.808;2023-03-13T05:36:46;97544.94;;;6.56;100.00
64080;BME280;51042;49.696;10.808;2023-03-13T05:39:11;97547.69;;;6.56;100.00
64080;BME280;51042;49.696;10.808;2023-03-13T05:41:36;97545.72;;;6.57;100.00
64080;BME280;51042;49.696;10.808;2023-03-13T05:44:01;97543.41;;;6.55;100.00
64080;BME280;51042;49.696;10.808;2023-03-13T05:46:26;97544.94;;;6.56;100.00
64080;BME280;51042;49.696;10.808;2023-03-13T05:48:52;97543.41;;;6.55;100.00
64080;BME280;51042;49.696;10.808;2023-03-13T05:51:17;97531.00;;;6.54;100.00
64080;BME280;51042;49.696;10.808;2023-03-13T05:53:42;97532.97;;;6.54;100.00
64080;BME280;51042;49.696;10.808;2023-03-13T05:56:07;97537.22;;;6.55;100.00
64080;BME280;51042;49.696;10.808;2023-03-13T05:58:33;97531.00;;;6.54;100.00
64080;BME280;51042;49.696;10.808;2023-03-13T06:00:58;97529.78;;;6.55;100.00
64080;BME280;51042;49.696;10.808;2023-03-13T06:03:23;97517.28;;;6.58;100.00
64080;BME280;51042;49.696;10.808;2023-03-13T06:05:48;97511.81;;;6.58;100.00
64080;BME280;51042;49.696;10.808;2023-03-13T06:08:13;97523.84;;;6.61;100.00
64080;BME280;51042;49.696;10.808;2023-03-13T06:10:38;97513.94;;;6.67;100.00
64080;BME280;51042;49.696;10.808;2023-03-13T06:13:04;97518.84;;;6.72;100.00
64080;BME280;51042;49.696;10.808;2023-03-13T06:15:29;97510.16;;;6.77;100.00
64080;BME280;51042;49.696;10.808;2023-03-13T06:17:54;97516.25;;;6.81;100.00
64080;BME280;51042;49.696;10.808;2023-03-13T06:20:19;97516.50;;;6.86;100.00
64080;BME280;51042;49.696;10.808;2023-03-13T06:22:44;97500.38;;;6.92;100.00
64080;BME280;51042;49.696;10.808;2023-03-13T06:25:09;97517.97;;;7.04;100.00
64080;BME280;51042;49.696;10.808;2023-03-13T06:27:35;97515.91;;;7.08;100.00
64080;BME280;51042;49.696;10.808;2023-03-13T06:30:00;97515.81;;;7.11;100.00
64080;BME280;51042;49.696;10.808;2023-03-13T06:32:26;97513.72;;;7.15;100.00
64080;BME280;51042;49.696;10.808;2023-03-13T06:34:52;97494.88;;;7.21;100.00
64080;BME280;51042;49.696;10.808;2023-03-13T06:37:17;97507.22;;;7.25;100.00
64080;BME280;51042;49.696;10.808;2023-03-13T06:39:42;97509.06;;;7.28;100.00
64080;BME280;51042;49.696;10.808;2023-03-13T06:42:07;97505.03;;;7.33;100.00
64080;BME280;51042;49.696;10.808;2023-03-13T06:44:32;97501.00;;;7.37;100.00
64080;BME280;51042;49.696;10.808;2023-03-13T06:46:58;97494.13;;;7.46;100.00
64080;BME280;51042;49.696;10.808;2023-03-13T06:49:23;97493.47;;;7.54;100.00
64080;BME280;51042;49.696;10.808;2023-03-13T06:51:48;97493.38;;;7.58;100.00
64080;BME280;51042;49.696;10.808;2023-03-13T06:54:13;97488.13;;;7.63;100.00
64080;BME280;51042;49.696;10.808;2023-03-13T06:56:38;97494.56;;;7.69;100.00
64080;BME280;51042;49.696;10.808;2023-03-13T06:59:04;97499.81;;;7.76;100.00
64080;BME280;51042;49.696;10.808;2023-03-13T07:01:29;97498.19;;;7.79;100.00
64080;BME280;51042;49.696;10.808;2023-03-13T07:03:54;97494.91;;;7.84;100.00
64080;BME280;51042;49.696;10.808;2023-03-13T07:06:19;97502.19;;;7.87;100.00
64080;BME280;51042;49.696;10.808;2023-03-13T07:08:44;97507.66;;;7.87;100.00
64080;BME280;51042;49.696;10.808;2023-03-13T07:11:11;97508.00;;;7.89;100.00
64080;BME280;51042;49.696;10.808;2023-03-13T07:13:36;97505.13;;;7.93;100.00
64080;BME280;51042;49.696;10.808;2023-03-13T07:16:02;97503.50;;;7.95;100.00
64080;BME280;51042;49.696;10.808;2023-03-13T07:18:31;97496.28;;;8.01;100.00
64080;BME280;51042;49.696;10.808;2023-03-13T07:20:58;97496.06;;;8.08;100.00
64080;BME280;51042;49.696;10.808;2023-03-13T07:23:24;97508.84;;;8.11;100.00
64080;BME280;51042;49.696;10.808;2023-03-13T07:28:18;97505.66;;;8.26;100.00
64080;BME280;51042;49.696;10.808;2023-03-13T07:30:44;97507.47;;;8.29;100.00
64080;BME280;51042;49.696;10.808;2023-03-13T07:33:09;97498.31;;;8.35;100.00
64080;BME280;51042;49.696;10.808;2023-03-13T07:35:34;97493.50;;;8.39;100.00
64080;BME280;51042;49.696;10.808;2023-03-13T07:37:59;97494.47;;;8.45;100.00
64080;BME280;51042;49.696;10.808;2023-03-13T07:40:24;97487.34;;;8.48;100.00
64080;BME280;51042;49.696;10.808;2023-03-13T07:42:49;97480.53;;;8.52;100.00
64080;BME280;51042;49.696;10.808;2023-03-13T07:45:15;97474.19;;;8.55;100.00
64080;BME280;51042;49.696;10.808;2023-03-13T07:47:40;97475.47;;;8.64;100.00
64080;BME280;51042;49.696;10.808;2023-03-13T07:50:05;97468.00;;;8.64;100.00
64080;BME280;51042;49.696;10.808;2023-03-13T07:52:30;97467.56;;;8.66;100.00
64080;BME280;51042;49.696;10.808;2023-03-13T07:54:56;97477.75;;;8.65;100.00
64080;BME280;51042;49.696;10.808;2023-03-13T07:57:21;97470.31;;;8.66;100.00
64080;BME280;51042;49.696;10.808;2023-03-13T07:59:46;97480.38;;;8.69;100.00
64080;BME280;51042;49.696;10.808;2023-03-13T08:02:11;97478.09;;;8.67;100.00
64080;BME280;51042;49.696;10.808;2023-03-13T08:04:38;97484.75;;;8.66;100.00
64080;BME280;51042;49.696;10.808;2023-03-13T08:07:06;97481.16;;;8.69;100.00
64080;BME280;51042;49.696;10.808;2023-03-13T08:09:31;97492.84;;;8.70;100.00
64080;BME280;51042;49.696;10.808;2023-03-13T08:11:57;97482.97;;;8.72;100.00
64080;BME280;51042;49.696;10.808;2023-03-13T08:14:22;97485.47;;;8.79;100.00
64080;BME280;51042;49.696;10.808;2023-03-13T08:16:47;97473.94;;;8.84;100.00
64080;BME280;51042;49.696;10.808;2023-03-13T08:19:12;97474.03;;;8.93;100.00
64080;BME280;51042;49.696;10.808;2023-03-13T08:21:38;97475.91;;;9.06;100.00
64080;BME280;51042;49.696;10.808;2023-03-13T08:24:04;97468.84;;;9.17;100.00
64080;BME280;51042;49.696;10.808;2023-03-13T08:26:31;97472.97;;;9.22;100.00
64080;BME280;51042;49.696;10.808;2023-03-13T08:28:57;97466.72;;;9.21;100.00
64080;BME280;51042;49.696;10.808;2023-03-13T08:31:27;97472.38;;;9.27;100.00
64080;BME280;51042;49.696;10.808;2023-03-13T08:33:53;97460.66;;;9.26;100.00
64080;BME280;51042;49.696;10.808;2023-03-13T08:36:20;97464.16;;;9.27;100.00
64080;BME280;51042;49.696;10.808;2023-03-13T08:38:47;97464.31;;;9.23;100.00
64080;BME280;51042;49.696;10.808;2023-03-13T08:41:13;97460.34;;;9.24;100.00
64080;BME280;51042;49.696;10.808;2023-03-13T08:43:38;97454.75;;;9.28;100.00
64080;BME280;51042;49.696;10.808;2023-03-13T08:46:04;97466.63;;;9.34;100.00
64080;BME280;51042;49.696;10.808;2023-03-13T08:48:29;97461.00;;;9.37;100.00
64080;BME280;51042;49.696;10.808;2023-03-13T08:51:10;97466.06;;;9.39;100.00
64080;BME280;51042;49.696;10.808;2023-03-13T08:53:36;97459.97;;;9.44;100.00
64080;BME280;51042;49.696;10.808;2023-03-13T08:56:01;97450.28;;;9.52;100.00
64080;BME280;51042;49.696;10.808;2023-03-13T08:58:28;97450.31;;;9.61;100.00
64080;BME280;51042;49.696;10.808;2023-03-13T09:00:53;97438.63;;;9.79;100.00
64080;BME280;51042;49.696;10.808;2023-03-13T09:03:18;97447.34;;;9.96;100.00
64080;BME280;51042;49.696;10.808;2023-03-13T09:05:43;97441.78;;;10.27;100.00
64080;BME280;51042;49.696;10.808;2023-03-13T09:08:10;97451.69;;;10.70;100.00
64080;BME280;51042;49.696;10.808;2023-03-13T09:10:35;97455.66;;;10.96;100.00
64080;BME280;51042;49.696;10.808;2023-03-13T09:13:00;97452.88;;;11.05;100.00
64080;BME280;51042;49.696;10.808;2023-03-13T09:15:26;97454.09;;;11.04;100.00
64080;BME280;51042;49.696;10.808;2023-03-13T09:17:51;97445.72;;;10.98;100.00
64080;BME280;51042;49.696;10.808;2023-03-13T09:20:16;97449.53;;;11.01;100.00
64080;BME280;51042;49.696;10.808;2023-03-13T09:22:43;97450.88;;;11.05;100.00
64080;BME280;51042;49.696;10.808;2023-03-13T09:25:08;97441.41;;;11.16;100.00
64080;BME280;51042;49.696;10.808;2023-03-13T09:27:33;97436.97;;;11.18;100.00
64080;BME280;51042;49.696;10.808;2023-03-13T09:29:58;97445.03;;;11.22;100.00
64080;BME280;51042;49.696;10.808;2023-03-13T09:32:23;97439.34;;;11.34;100.00
64080;BME280;51042;49.696;10.808;2023-03-13T09:34:49;97445.72;;;11.50;100.00
64080;BME280;51042;49.696;10.808;2023-03-13T09:37:14;97446.13;;;11.57;100.00
64080;BME280;51042;49.696;10.808;2023-03-13T09:39:39;97444.75;;;11.62;100.00
64080;BME280;51042;49.696;10.808;2023-03-13T09:42:14;97437.84;;;11.66;100.00
64080;BME280;51042;49.696;10.808;2023-03-13T09:45:00;97432.94;;;11.70;100.00
64080;BME280;51042;49.696;10.808;2023-03-13T09:47:41;97432.00;;;11.82;100.00
64080;BME280;51042;49.696;10.808;2023-03-13T09:50:14;97443.22;;;11.94;100.00
64080;BME280;51042;49.696;10.808;2023-03-13T09:52:42;97431.13;;;12.00;100.00
64080;BME280;51042;49.696;10.808;2023-03-13T09:55:19;97438.91;;;12.02;100.00
64080;BME280;51042;49.696;10.808;2023-03-13T10:00:41;97440.59;;;11.99;100.00
64080;BME280;51042;49.696;10.808;2023-03-13T10:03:11;97443.00;;;12.06;100.00
64080;BME280;51042;49.696;10.808;2023-03-13T10:05:38;97452.19;;;12.03;100.00
64080;BME280;51042;49.696;10.808;2023-03-13T10:10:42;97445.72;;;11.82;100.00
64080;BME280;51042;49.696;10.808;2023-03-13T10:13:26;97445.31;;;11.75;100.00
64080;BME280;51042;49.696;10.808;2023-03-13T10:16:09;97446.38;;;11.68;100.00
64080;BME280;51042;49.696;10.808;2023-03-13T10:18:35;97443.47;;;11.72;100.00
64080;BME280;51042;49.696;10.808;2023-03-13T10:21:18;97447.13;;;11.69;100.00
64080;BME280;51042;49.696;10.808;2023-03-13T10:24:04;97448.22;;;11.71;100.00
64080;BME280;51042;49.696;10.808;2023-03-13T10:26:36;97450.81;;;11.75;100.00
64080;BME280;51042;49.696;10.808;2023-03-13T10:29:21;97433.22;;;11.81;100.00
64080;BME280;51042;49.696;10.808;2023-03-13T10:32:19;97453.34;;;11.88;100.00
64080;BME280;51042;49.696;10.808;2023-03-13T10:37:10;97428.03;;;12.07;100.00
64080;BME280;51042;49.696;10.808;2023-03-13T10:39:36;97425.03;;;12.20;99.44
64080;BME280;51042;49.696;10.808;2023-03-13T10:42:08;97402.25;;;12.43;96.69
64080;BME280;51042;49.696;10.808;2023-03-13T10:44:35;97411.00;;;12.71;94.77
64080;BME280;51042;49.696;10.808;2023-03-13T10:47:01;97426.31;;;12.87;93.99
64080;BME280;51042;49.696;10.808;2023-03-13T10:49:26;97412.63;;;13.07;91.24
64080;BME280;51042;49.696;10.808;2023-03-13T10:51:56;97419.56;;;13.32;89.53
64080;BME280;51042;49.696;10.808;2023-03-13T10:54:23;97406.19;;;13.74;88.00
64080;BME280;51042;49.696;10.808;2023-03-13T10:56:49;97405.28;;;13.83;87.24
64080;BME280;51042;49.696;10.808;2023-03-13T10:59:24;97394.59;;;13.90;85.19
64080;BME280;51042;49.696;10.808;2023-03-13T11:01:51;97388.06;;;13.88;85.20
64080;BME280;51042;49.696;10.808;2023-03-13T11:04:30;97390.91;;;13.94;85.19
64080;BME280;51042;49.696;10.808;2023-03-13T11:07:03;97385.75;;;14.42;82.45
64080;BME280;51042;49.696;10.808;2023-03-13T11:09:29;97372.50;;;14.72;81.85
64080;BME280;51042;49.696;10.808;2023-03-13T11:11:57;97375.66;;;14.90;79.19
64080;BME280;51042;49.696;10.808;2023-03-13T11:14:25;97391.41;;;14.84;78.95
64080;BME280;51042;49.696;10.808;2023-03-13T11:16:55;97374.59;;;14.82;80.06
64080;BME280;51042;49.696;10.808;2023-03-13T11:19:36;97372.03;;;14.79;80.85
64080;BME280;51042;49.696;10.808;2023-03-13T11:22:10;97384.34;;;14.52;81.31
64080;BME280;51042;49.696;10.808;2023-03-13T11:25:22;97380.88;;;14.37;82.39
64080;BME280;51042;49.696;10.808;2023-03-13T11:27:34;97384.97;;;14.41;82.48
64080;BME280;51042;49.696;10.808;2023-03-13T11:32:35;97390.13;;;14.13;82.58
64080;BME280;51042;49.696;10.808;2023-03-13T11:35:03;97390.47;;;14.01;83.38
64080;BME280;51042;49.696;10.808;2023-03-13T11:37:31;97383.78;;;13.87;83.89
64080;BME280;51042;49.696;10.808;2023-03-13T11:39:58;97387.97;;;13.82;84.44
64080;BME280;51042;49.696;10.808;2023-03-13T11:42:36;97374.06;;;13.92;82.61
64080;BME280;51042;49.696;10.808;2023-03-13T11:45:11;97377.72;;;14.23;81.61
64080;BME280;51042;49.696;10.808;2023-03-13T11:57:56;97346.34;;;15.67;74.95
64080;BME280;51042;49.696;10.808;2023-03-13T12:00:41;97336.81;;;16.32;72.17
64080;BME280;51042;49.696;10.808;2023-03-13T12:05:44;97317.53;;;15.90;72.57
64080;BME280;51042;49.696;10.808;2023-03-13T12:08:17;97314.53;;;15.99;72.49
64080;BME280;51042;49.696;10.808;2023-03-13T12:10:51;97307.69;;;15.83;72.02
64080;BME280;51042;49.696;10.808;2023-03-13T12:13:25;97306.75;;;16.03;72.52
64080;BME280;51042;49.696;10.808;2023-03-13T12:15:53;97293.50;;;16.41;70.89
64080;BME280;51042;49.696;10.808;2023-03-13T12:18:27;97298.59;;;16.87;69.94
64080;BME280;51042;49.696;10.808;2023-03-13T12:26:09;97280.38;;;17.47;65.78
64080;BME280;51042;49.696;10.808;2023-03-13T12:28:40;97281.16;;;17.36;66.48
64080;BME280;51042;49.696;10.808;2023-03-13T12:31:12;97267.59;;;17.27;66.72
64080;BME280;51042;49.696;10.808;2023-03-13T12:38:33;97268.75;;;17.54;64.50
64080;BME280;51042;49.696;10.808;2023-03-13T12:41:10;97255.19;;;17.39;65.03
64080;BME280;51042;49.696;10.808;2023-03-13T12:43:39;97258.69;;;17.57;65.91
64080;BME280;51042;49.696;10.808;2023-03-13T12:48:52;97246.94;;;17.00;67.11
64080;BME280;51042;49.696;10.808;2023-03-13T12:51:28;97226.22;;;17.29;67.34
64080;BME280;51042;49.696;10.808;2023-03-13T12:54:17;97232.22;;;17.44;66.68
64080;BME280;51042;49.696;10.808;2023-03-13T12:56:54;97214.56;;;17.47;66.15
64080;BME280;51042;49.696;10.808;2023-03-13T13:01:52;97198.94;;;18.02;64.86
64080;BME280;51042;49.696;10.808;2023-03-13T13:04:22;97203.16;;;18.14;64.15
64080;BME280;51042;49.696;10.808;2023-03-13T13:06:50;97196.19;;;18.32;63.15
64080;BME280;51042;49.696;10.808;2023-03-13T13:09:23;97190.03;;;18.45;62.93
64080;BME280;51042;49.696;10.808;2023-03-13T13:11:49;97184.38;;;18.26;62.43
64080;BME280;51042;49.696;10.808;2023-03-13T13:16:43;97172.59;;;18.14;62.75
64080;BME280;51042;49.696;10.808;2023-03-13T13:24:39;97168.19;;;18.30;63.03
64080;BME280;51042;49.696;10.808;2023-03-13T13:27:24;97172.59;;;19.04;60.83
64080;BME280;51042;49.696;10.808;2023-03-13T13:29:52;97160.31;;;19.37;58.78
64080;BME280;51042;49.696;10.808;2023-03-13T13:32:17;97140.56;;;19.40;59.56
64080;BME280;51042;49.696;10.808;2023-03-13T13:34:53;97130.13;;;19.46;58.88
64080;BME280;51042;49.696;10.808;2023-03-13T13:39:47;97141.16;;;19.33;57.93
64080;BME280;51042;49.696;10.808;2023-03-13T13:44:57;97129.66;;;19.42;58.03
64080;BME280;51042;49.696;10.808;2023-03-13T13:47:24;97127.50;;;19.11;58.85
64080;BME280;51042;49.696;10.808;2023-03-13T13:49:51;97131.06;;;18.87;60.66